createdAt,value
2017-08-25T00:00:01.778Z,1019.51
2017-08-25T00:01:03.596Z,1019.53
2017-08-25T00:02:05.414Z,1019.49
2017-08-25T00:03:07.301Z,1019.48
2017-08-25T00:04:09.185Z,1019.45
2017-08-25T00:05:11.071Z,1019.42
2017-08-25T00:06:25.241Z,1019.43
2017-08-25T00:07:27.119Z,1019.46
2017-08-25T00:08:29.006Z,1019.45
2017-08-25T00:09:30.889Z,1019.47
2017-08-25T00:10:32.707Z,1019.48
2017-08-25T00:11:34.526Z,1019.52
2017-08-25T00:12:36.412Z,1019.52
2017-08-25T00:13:38.296Z,1019.54
2017-08-25T00:14:40.178Z,1019.55
2017-08-25T00:15:54.333Z,1019.55
2017-08-25T00:16:56.228Z,1019.58
2017-08-25T00:17:58.122Z,1019.52
2017-08-25T00:19:00.015Z,1019.53
2017-08-25T00:20:01.837Z,1019.53
2017-08-25T00:21:03.655Z,1019.49
2017-08-25T00:22:05.538Z,1019.47
2017-08-25T00:23:07.434Z,1019.48
2017-08-25T00:24:09.317Z,1019.47
2017-08-25T00:25:23.473Z,1019.46
2017-08-25T00:26:25.369Z,1019.46
2017-08-25T00:27:27.255Z,1019.44
2017-08-25T00:28:29.144Z,1019.45
2017-08-25T00:29:30.964Z,1019.45
2017-08-25T00:30:32.793Z,1019.44
2017-08-25T00:31:34.710Z,1019.42
2017-08-25T00:32:36.576Z,1019.42
2017-08-25T00:33:38.461Z,1019.43
2017-08-25T00:34:52.615Z,1019.47
2017-08-25T00:35:54.500Z,1019.44
2017-08-25T00:36:56.394Z,1019.46
2017-08-25T00:37:58.278Z,1019.43
2017-08-25T00:39:00.103Z,1019.42
2017-08-25T00:40:01.920Z,1019.45
2017-08-25T00:41:03.808Z,1019.44
2017-08-25T00:42:05.692Z,1019.43
2017-08-25T00:43:07.584Z,1019.48
2017-08-25T00:44:21.789Z,1019.49
2017-08-25T00:45:23.673Z,1019.46
2017-08-25T00:46:25.561Z,1019.45
2017-08-25T00:47:27.442Z,1019.46
2017-08-25T00:48:29.274Z,1019.43
2017-08-25T00:49:31.105Z,1019.47
2017-08-25T00:50:33.003Z,1019.47
2017-08-25T00:51:34.887Z,1019.44
2017-08-25T00:52:36.769Z,1019.45
2017-08-25T00:53:50.924Z,1019.46
2017-08-25T00:54:52.818Z,1019.45
2017-08-25T00:55:54.702Z,1019.44
2017-08-25T00:56:56.585Z,1019.45
2017-08-25T00:57:58.416Z,1019.47
2017-08-25T00:59:00.230Z,1019.47
2017-08-25T01:00:02.131Z,1019.49
2017-08-25T01:01:04.010Z,1019.49
2017-08-25T01:02:05.891Z,1019.44
2017-08-25T01:03:20.047Z,1019.50
2017-08-25T01:04:21.931Z,1019.47
2017-08-25T01:05:23.820Z,1019.45
2017-08-25T01:06:25.700Z,1019.43
2017-08-25T01:07:27.521Z,1019.41
2017-08-25T01:08:29.339Z,1019.44
2017-08-25T01:09:31.238Z,1019.41
2017-08-25T01:10:33.123Z,1019.40
2017-08-25T01:11:35.007Z,1019.44
2017-08-25T01:12:49.163Z,1019.41
2017-08-25T01:13:51.046Z,1019.41
2017-08-25T01:14:52.944Z,1019.44
2017-08-25T01:15:54.822Z,1019.45
2017-08-25T01:16:56.646Z,1019.44
2017-08-25T01:17:58.468Z,1019.43
2017-08-25T01:19:00.351Z,1019.44
2017-08-25T01:20:02.235Z,1019.42
2017-08-25T01:21:04.116Z,1019.42
2017-08-25T01:22:18.271Z,1019.48
2017-08-25T01:23:20.166Z,1019.43
2017-08-25T01:24:22.050Z,1019.44
2017-08-25T01:25:23.933Z,1019.44
2017-08-25T01:26:25.757Z,1019.42
2017-08-25T01:27:27.575Z,1019.44
2017-08-25T01:28:29.473Z,1019.43
2017-08-25T01:29:31.351Z,1019.44
2017-08-25T01:30:33.244Z,1019.43
2017-08-25T01:31:47.398Z,1019.39
2017-08-25T01:32:49.279Z,1019.40
2017-08-25T01:33:51.175Z,1019.40
2017-08-25T01:34:53.058Z,1019.40
2017-08-25T01:35:54.876Z,1019.43
2017-08-25T01:36:56.708Z,1019.42
2017-08-25T01:37:58.583Z,1019.44
2017-08-25T01:39:00.476Z,1019.44
2017-08-25T01:40:02.369Z,1019.39
2017-08-25T01:41:16.523Z,1019.40
2017-08-25T01:42:18.409Z,1019.39
2017-08-25T01:43:20.295Z,1019.41
2017-08-25T01:44:22.181Z,1019.40
2017-08-25T01:45:24.000Z,1019.40
2017-08-25T01:46:25.823Z,1019.39
2017-08-25T01:47:27.718Z,1019.40
2017-08-25T01:48:29.603Z,1019.37
2017-08-25T01:49:31.485Z,1019.40
2017-08-25T01:50:45.638Z,1019.42
2017-08-25T01:51:47.520Z,1019.40
2017-08-25T01:52:49.405Z,1019.40
2017-08-25T01:53:51.299Z,1019.47
2017-08-25T01:54:53.120Z,1019.47
2017-08-25T01:55:54.944Z,1019.47
2017-08-25T01:56:56.830Z,1019.42
2017-08-25T01:57:58.717Z,1019.43
2017-08-25T01:59:00.609Z,1019.41
2017-08-25T02:00:14.773Z,1019.45
2017-08-25T02:01:16.655Z,1019.45
2017-08-25T02:02:18.539Z,1019.40
2017-08-25T02:03:20.422Z,1019.44
2017-08-25T02:04:22.239Z,1019.43
2017-08-25T02:05:24.059Z,1019.43
2017-08-25T02:06:25.941Z,1019.41
2017-08-25T02:07:27.835Z,1019.44
2017-08-25T02:08:29.718Z,1019.44
2017-08-25T02:09:43.873Z,1019.40
2017-08-25T02:10:45.756Z,1019.40
2017-08-25T02:11:47.644Z,1019.36
2017-08-25T02:12:49.528Z,1019.41
2017-08-25T02:13:51.356Z,1019.38
2017-08-25T02:14:53.174Z,1019.33
2017-08-25T02:15:55.060Z,1019.36
2017-08-25T02:16:56.943Z,1019.32
2017-08-25T02:17:58.833Z,1019.33
2017-08-25T02:19:13.034Z,1019.39
2017-08-25T02:20:14.917Z,1019.41
2017-08-25T02:21:16.801Z,1019.43
2017-08-25T02:22:18.686Z,1019.40
2017-08-25T02:23:20.503Z,1019.37
2017-08-25T02:24:22.324Z,1019.38
2017-08-25T02:25:24.211Z,1019.41
2017-08-25T02:26:26.096Z,1019.38
2017-08-25T02:27:27.986Z,1019.39
2017-08-25T02:28:42.135Z,1019.39
2017-08-25T02:29:44.016Z,1019.36
2017-08-25T02:30:45.900Z,1019.42
2017-08-25T02:31:47.794Z,1019.45
2017-08-25T02:32:49.623Z,1019.44
2017-08-25T02:33:51.455Z,1019.41
2017-08-25T02:34:53.336Z,1019.44
2017-08-25T02:35:55.222Z,1019.44
2017-08-25T02:36:57.118Z,1019.46
2017-08-25T02:38:11.272Z,1019.42
2017-08-25T02:39:13.155Z,1019.44
2017-08-25T02:40:15.042Z,1019.48
2017-08-25T02:41:16.924Z,1019.47
2017-08-25T02:42:18.754Z,1019.48
2017-08-25T02:43:20.574Z,1019.51
2017-08-25T02:44:22.463Z,1019.50
2017-08-25T02:45:24.363Z,1019.49
2017-08-25T02:46:26.244Z,1019.47
2017-08-25T02:47:40.403Z,1019.44
2017-08-25T02:48:42.313Z,1019.46
2017-08-25T02:49:44.172Z,1019.43
2017-08-25T02:50:46.057Z,1019.43
2017-08-25T02:51:47.873Z,1019.40
2017-08-25T02:52:49.692Z,1019.42
2017-08-25T02:53:51.579Z,1019.38
2017-08-25T02:54:53.462Z,1019.39
2017-08-25T02:55:55.355Z,1019.36
2017-08-25T02:57:09.518Z,1019.33
2017-08-25T02:58:11.400Z,1019.31
2017-08-25T02:59:13.285Z,1019.35
2017-08-25T03:00:15.179Z,1019.30
2017-08-25T03:01:17.008Z,1019.27
2017-08-25T03:02:18.826Z,1019.31
2017-08-25T03:03:20.722Z,1019.30
2017-08-25T03:04:22.609Z,1019.31
2017-08-25T03:05:24.490Z,1019.27
2017-08-25T03:06:38.675Z,1019.28
2017-08-25T03:07:40.557Z,1019.29
2017-08-25T03:08:42.443Z,1019.30
2017-08-25T03:09:44.324Z,1019.27
2017-08-25T03:10:46.141Z,1019.31
2017-08-25T03:11:47.961Z,1019.28
2017-08-25T03:12:49.845Z,1019.30
2017-08-25T03:13:51.729Z,1019.34
2017-08-25T03:14:53.610Z,1019.32
2017-08-25T03:16:07.773Z,1019.33
2017-08-25T03:17:09.668Z,1019.30
2017-08-25T03:18:11.553Z,1019.26
2017-08-25T03:19:13.437Z,1019.30
2017-08-25T03:20:15.253Z,1019.25
2017-08-25T03:21:17.071Z,1019.26
2017-08-25T03:22:18.964Z,1019.26
2017-08-25T03:23:20.847Z,1019.26
2017-08-25T03:24:22.757Z,1019.23
2017-08-25T03:25:36.890Z,1019.25
2017-08-25T03:26:38.773Z,1019.20
2017-08-25T03:27:40.657Z,1019.25
2017-08-25T03:28:42.556Z,1019.24
2017-08-25T03:29:44.370Z,1019.28
2017-08-25T03:30:46.189Z,1019.28
2017-08-25T03:31:48.075Z,1019.29
2017-08-25T03:32:49.957Z,1019.30
2017-08-25T03:33:51.843Z,1019.29
2017-08-25T03:35:05.994Z,1019.29
2017-08-25T03:36:07.876Z,1019.28
2017-08-25T03:37:09.761Z,1019.32
2017-08-25T03:38:11.643Z,1019.33
2017-08-25T03:39:13.659Z,1019.35
2017-08-25T03:40:15.477Z,1019.38
2017-08-25T03:41:17.361Z,1019.41
2017-08-25T03:42:19.245Z,1019.40
2017-08-25T03:43:21.128Z,1019.39
2017-08-25T03:44:35.280Z,1019.38
2017-08-25T03:45:37.174Z,1019.39
2017-08-25T03:46:39.068Z,1019.42
2017-08-25T03:47:40.954Z,1019.40
2017-08-25T03:48:42.774Z,1019.41
2017-08-25T03:49:44.595Z,1019.41
2017-08-25T03:50:46.489Z,1019.41
2017-08-25T03:51:48.335Z,1019.39
2017-08-25T03:52:50.156Z,1019.43
2017-08-25T03:54:04.345Z,1019.39
2017-08-25T03:55:06.229Z,1019.40
2017-08-25T03:56:08.122Z,1019.41
2017-08-25T03:57:10.006Z,1019.40
2017-08-25T03:58:11.825Z,1019.38
2017-08-25T03:59:13.657Z,1019.37
2017-08-25T04:00:15.566Z,1019.39
2017-08-25T04:01:17.452Z,1019.42
2017-08-25T04:02:19.341Z,1019.41
2017-08-25T04:03:33.495Z,1019.45
2017-08-25T04:04:35.378Z,1019.46
2017-08-25T04:05:37.265Z,1019.42
2017-08-25T04:06:39.150Z,1019.43
2017-08-25T04:07:40.987Z,1019.47
2017-08-25T04:08:42.819Z,1019.41
2017-08-25T04:09:44.705Z,1019.41
2017-08-25T04:10:46.601Z,1019.40
2017-08-25T04:11:48.492Z,1019.42
2017-08-25T04:13:02.646Z,1019.40
2017-08-25T04:14:04.531Z,1019.41
2017-08-25T04:15:06.419Z,1019.41
2017-08-25T04:16:08.304Z,1019.43
2017-08-25T04:17:10.134Z,1019.43
2017-08-25T04:18:11.964Z,1019.48
2017-08-25T04:19:13.849Z,1019.49
2017-08-25T04:20:15.740Z,1019.51
2017-08-25T04:21:17.625Z,1019.52
2017-08-25T04:22:31.830Z,1019.54
2017-08-25T04:23:33.717Z,1019.52
2017-08-25T04:24:35.603Z,1019.50
2017-08-25T04:25:37.491Z,1019.50
2017-08-25T04:26:39.324Z,1019.53
2017-08-25T04:27:41.149Z,1019.54
2017-08-25T04:28:43.039Z,1019.53
2017-08-25T04:29:44.928Z,1019.55
2017-08-25T04:30:46.825Z,1019.52
2017-08-25T04:32:01.064Z,1019.56
2017-08-25T04:33:02.950Z,1019.58
2017-08-25T04:34:04.837Z,1019.59
2017-08-25T04:35:06.726Z,1019.59
2017-08-25T04:36:08.561Z,1019.55
2017-08-25T04:37:10.385Z,1019.53
2017-08-25T04:38:12.271Z,1019.55
2017-08-25T04:39:14.176Z,1019.57
2017-08-25T04:40:16.072Z,1019.65
2017-08-25T04:41:30.241Z,1019.62
2017-08-25T04:42:32.127Z,1019.69
2017-08-25T04:43:34.026Z,1019.67
2017-08-25T04:44:35.927Z,1019.72
2017-08-25T04:45:37.754Z,1019.68
2017-08-25T04:46:39.576Z,1019.71
2017-08-25T04:47:41.474Z,1019.69
2017-08-25T04:48:43.362Z,1019.69
2017-08-25T04:49:45.247Z,1019.71
2017-08-25T04:50:59.406Z,1019.77
2017-08-25T04:52:01.291Z,1019.77
2017-08-25T04:53:03.182Z,1019.82
2017-08-25T04:54:05.071Z,1019.86
2017-08-25T04:55:06.903Z,1019.85
2017-08-25T04:56:08.715Z,1019.85
2017-08-25T04:57:10.613Z,1019.83
2017-08-25T04:58:12.503Z,1019.91
2017-08-25T04:59:14.388Z,1019.85
2017-08-25T05:00:28.547Z,1019.87
2017-08-25T05:01:30.432Z,1019.89
2017-08-25T05:02:32.322Z,1019.88
2017-08-25T05:03:34.209Z,1019.91
2017-08-25T05:04:36.032Z,1019.87
2017-08-25T05:05:37.858Z,1019.87
2017-08-25T05:06:39.748Z,1019.89
2017-08-25T05:07:41.640Z,1019.90
2017-08-25T05:08:43.529Z,1019.90
2017-08-25T05:09:57.686Z,1019.95
2017-08-25T05:10:59.573Z,1019.95
2017-08-25T05:12:01.461Z,1019.91
2017-08-25T05:13:03.349Z,1019.93
2017-08-25T05:14:05.170Z,1019.91
2017-08-25T05:15:07.004Z,1019.91
2017-08-25T05:16:08.903Z,1019.95
2017-08-25T05:17:10.801Z,1019.96
2017-08-25T05:18:12.691Z,1019.98
2017-08-25T05:19:26.847Z,1019.99
2017-08-25T05:20:28.736Z,1019.96
2017-08-25T05:21:30.622Z,1019.97
2017-08-25T05:22:32.509Z,1019.96
2017-08-25T05:23:34.343Z,1019.95
2017-08-25T05:24:36.167Z,1019.97
2017-08-25T05:25:38.057Z,1020.00
2017-08-25T05:26:39.945Z,1019.99
2017-08-25T05:27:41.831Z,1020.03
2017-08-25T05:28:56.001Z,1020.03
2017-08-25T05:29:57.886Z,1020.04
2017-08-25T05:30:59.786Z,1020.03
2017-08-25T05:32:01.685Z,1020.08
2017-08-25T05:33:03.509Z,1020.08
2017-08-25T05:34:05.332Z,1020.10
2017-08-25T05:35:07.219Z,1020.10
2017-08-25T05:36:09.110Z,1020.11
2017-08-25T05:37:10.999Z,1020.11
2017-08-25T05:38:25.167Z,1020.19
2017-08-25T05:39:27.047Z,1020.18
2017-08-25T05:40:28.937Z,1020.13
2017-08-25T05:41:30.828Z,1020.13
2017-08-25T05:42:32.650Z,1020.16
2017-08-25T05:43:34.489Z,1020.13
2017-08-25T05:44:36.376Z,1020.12
2017-08-25T05:45:38.264Z,1020.14
2017-08-25T05:46:40.157Z,1020.16
2017-08-25T05:47:54.314Z,1020.16
2017-08-25T05:48:56.202Z,1020.20
2017-08-25T05:49:58.094Z,1020.24
2017-08-25T05:50:59.985Z,1020.20
2017-08-25T05:52:01.808Z,1020.19
2017-08-25T05:53:03.646Z,1020.21
2017-08-25T05:54:05.535Z,1020.19
2017-08-25T05:55:07.429Z,1020.24
2017-08-25T05:56:09.320Z,1020.22
2017-08-25T05:57:23.478Z,1020.23
2017-08-25T05:58:25.365Z,1020.23
2017-08-25T05:59:27.266Z,1020.22
2017-08-25T06:00:29.165Z,1020.22
2017-08-25T06:01:30.989Z,1020.26
2017-08-25T06:02:32.816Z,1020.28
2017-08-25T06:03:34.717Z,1020.28
2017-08-25T06:04:36.608Z,1020.29
2017-08-25T06:05:38.508Z,1020.32
2017-08-25T06:06:52.729Z,1020.33
2017-08-25T06:07:54.631Z,1020.35
2017-08-25T06:08:56.520Z,1020.32
2017-08-25T06:09:58.400Z,1020.33
2017-08-25T06:11:00.225Z,1020.33
2017-08-25T06:12:02.051Z,1020.35
2017-08-25T06:13:03.938Z,1020.39
2017-08-25T06:14:05.831Z,1020.38
2017-08-25T06:15:07.718Z,1020.43
2017-08-25T06:16:21.889Z,1020.41
2017-08-25T06:17:23.780Z,1020.46
2017-08-25T06:18:25.671Z,1020.50
2017-08-25T06:19:27.564Z,1020.47
2017-08-25T06:20:29.400Z,1020.48
2017-08-25T06:21:31.225Z,1020.47
2017-08-25T06:22:33.116Z,1020.51
2017-08-25T06:23:35.019Z,1020.45
2017-08-25T06:24:36.920Z,1020.47
2017-08-25T06:25:51.080Z,1020.46
2017-08-25T06:26:52.968Z,1020.42
2017-08-25T06:27:54.869Z,1020.40
2017-08-25T06:28:56.756Z,1020.44
2017-08-25T06:29:58.604Z,1020.42
2017-08-25T06:31:00.419Z,1020.44
2017-08-25T06:32:02.313Z,1020.42
2017-08-25T06:33:04.205Z,1020.44
2017-08-25T06:34:06.106Z,1020.43
2017-08-25T06:35:20.267Z,1020.42
2017-08-25T06:36:22.160Z,1020.43
2017-08-25T06:37:24.049Z,1020.42
2017-08-25T06:38:25.946Z,1020.47
2017-08-25T06:39:27.771Z,1020.48
2017-08-25T06:40:29.599Z,1020.49
2017-08-25T06:41:31.488Z,1020.48
2017-08-25T06:42:33.379Z,1020.49
2017-08-25T06:43:35.271Z,1020.49
2017-08-25T06:44:49.433Z,1020.55
2017-08-25T06:45:51.322Z,1020.55
2017-08-25T06:46:53.223Z,1020.56
2017-08-25T06:47:55.123Z,1020.61
2017-08-25T06:48:56.950Z,1020.58
2017-08-25T06:49:58.775Z,1020.63
2017-08-25T06:51:00.676Z,1020.60
2017-08-25T06:52:02.581Z,1020.61
2017-08-25T06:53:04.468Z,1020.63
2017-08-25T06:54:18.629Z,1020.59
2017-08-25T06:55:20.518Z,1020.65
2017-08-25T06:56:22.412Z,1020.64
2017-08-25T06:57:24.303Z,1020.64
2017-08-25T06:58:26.130Z,1020.64
2017-08-25T06:59:27.962Z,1020.67
2017-08-25T07:00:29.846Z,1020.64
2017-08-25T07:01:31.742Z,1020.67
2017-08-25T07:02:33.633Z,1020.66
2017-08-25T07:03:47.856Z,1020.71
2017-08-25T07:04:49.748Z,1020.75
2017-08-25T07:05:51.638Z,1020.73
2017-08-25T07:06:53.532Z,1020.73
2017-08-25T07:07:55.367Z,1020.72
2017-08-25T07:08:57.192Z,1020.74
2017-08-25T07:09:59.092Z,1020.72
2017-08-25T07:11:00.981Z,1020.77
2017-08-25T07:12:02.882Z,1020.78
2017-08-25T07:13:17.044Z,1020.77
2017-08-25T07:14:18.933Z,1020.80
2017-08-25T07:15:20.825Z,1020.79
2017-08-25T07:16:22.715Z,1020.76
2017-08-25T07:17:24.566Z,1020.82
2017-08-25T07:18:26.385Z,1020.82
2017-08-25T07:19:28.279Z,1020.82
2017-08-25T07:20:30.170Z,1020.82
2017-08-25T07:21:32.073Z,1020.86
2017-08-25T07:22:46.238Z,1020.88
2017-08-25T07:23:48.125Z,1020.83
2017-08-25T07:24:50.018Z,1020.89
2017-08-25T07:25:51.914Z,1020.89
2017-08-25T07:26:53.742Z,1020.97
2017-08-25T07:27:55.571Z,1020.99
2017-08-25T07:28:57.465Z,1021.01
2017-08-25T07:29:59.358Z,1021.04
2017-08-25T07:31:01.249Z,1021.02
2017-08-25T07:32:15.425Z,1021.02
2017-08-25T07:33:17.316Z,1021.02
2017-08-25T07:34:19.220Z,1021.02
2017-08-25T07:35:21.115Z,1021.00
2017-08-25T07:36:22.943Z,1020.97
2017-08-25T07:37:24.772Z,1020.94
2017-08-25T07:38:26.676Z,1020.94
2017-08-25T07:39:28.580Z,1020.95
2017-08-25T07:40:30.578Z,1020.94
2017-08-25T07:41:44.764Z,1020.97
2017-08-25T07:42:46.590Z,1020.94
2017-08-25T07:43:48.427Z,1020.97
2017-08-25T07:44:50.323Z,1020.96
2017-08-25T07:45:52.223Z,1021.01
2017-08-25T07:46:54.093Z,1020.98
2017-08-25T07:47:55.920Z,1020.96
2017-08-25T07:48:57.745Z,1020.95
2017-08-25T07:49:59.637Z,1021.02
2017-08-25T07:51:13.874Z,1021.00
2017-08-25T07:52:15.767Z,1021.04
2017-08-25T07:53:17.661Z,1021.03
2017-08-25T07:54:19.555Z,1021.06
2017-08-25T07:55:21.382Z,1021.07
2017-08-25T07:56:23.222Z,1021.04
2017-08-25T07:57:25.113Z,1021.02
2017-08-25T07:58:27.021Z,1021.00
2017-08-25T07:59:28.924Z,1021.04
2017-08-25T08:00:43.084Z,1021.03
2017-08-25T08:01:44.977Z,1021.03
2017-08-25T08:02:46.870Z,1021.04
2017-08-25T08:03:48.768Z,1021.05
2017-08-25T08:04:50.598Z,1021.00
2017-08-25T08:05:52.431Z,1021.01
2017-08-25T08:06:54.330Z,1020.98
2017-08-25T08:07:56.226Z,1021.00
2017-08-25T08:08:58.131Z,1021.00
2017-08-25T08:10:12.305Z,1021.03
2017-08-25T08:11:14.204Z,1020.99
2017-08-25T08:12:16.154Z,1020.98
2017-08-25T08:13:18.045Z,1021.01
2017-08-25T08:14:19.873Z,1021.05
2017-08-25T08:15:21.703Z,1021.04
2017-08-25T08:16:23.556Z,1021.04
2017-08-25T08:17:25.449Z,1021.04
2017-08-25T08:18:27.343Z,1021.08
2017-08-25T08:19:41.504Z,1021.10
2017-08-25T08:20:43.396Z,1021.08
2017-08-25T08:21:45.288Z,1021.07
2017-08-25T08:22:47.180Z,1021.06
2017-08-25T08:23:49.018Z,1021.09
2017-08-25T08:24:50.851Z,1021.09
2017-08-25T08:25:52.740Z,1021.08
2017-08-25T08:26:54.631Z,1021.10
2017-08-25T08:27:56.525Z,1021.12
2017-08-25T08:29:10.692Z,1021.07
2017-08-25T08:30:12.582Z,1021.10
2017-08-25T08:31:14.473Z,1021.10
2017-08-25T08:32:16.369Z,1021.09
2017-08-25T08:33:18.211Z,1021.12
2017-08-25T08:34:20.038Z,1021.13
2017-08-25T08:35:21.934Z,1021.15
2017-08-25T08:36:23.832Z,1021.14
2017-08-25T08:37:25.724Z,1021.16
2017-08-25T08:38:39.934Z,1021.17
2017-08-25T08:39:41.828Z,1021.16
2017-08-25T08:40:43.720Z,1021.22
2017-08-25T08:41:45.622Z,1021.24
2017-08-25T08:42:47.448Z,1021.20
2017-08-25T08:43:49.276Z,1021.17
2017-08-25T08:44:51.171Z,1021.21
2017-08-25T08:45:53.067Z,1021.19
2017-08-25T08:46:54.960Z,1021.20
2017-08-25T08:48:09.124Z,1021.20
2017-08-25T08:49:11.015Z,1021.23
2017-08-25T08:50:12.917Z,1021.20
2017-08-25T08:51:14.819Z,1021.23
2017-08-25T08:52:16.651Z,1021.18
2017-08-25T08:53:18.478Z,1021.21
2017-08-25T08:54:20.372Z,1021.17
2017-08-25T08:55:22.263Z,1021.15
2017-08-25T08:56:24.166Z,1021.18
2017-08-25T08:57:38.328Z,1021.15
2017-08-25T08:58:40.231Z,1021.16
2017-08-25T08:59:42.122Z,1021.19
2017-08-25T09:00:44.027Z,1021.16
2017-08-25T09:01:45.854Z,1021.19
2017-08-25T09:02:47.694Z,1021.18
2017-08-25T09:03:49.586Z,1021.19
2017-08-25T09:04:51.481Z,1021.17
2017-08-25T09:05:53.384Z,1021.18
2017-08-25T09:07:07.558Z,1021.19
2017-08-25T09:08:09.451Z,1021.18
2017-08-25T09:09:11.345Z,1021.15
2017-08-25T09:10:13.239Z,1021.22
2017-08-25T09:11:15.069Z,1021.24
2017-08-25T09:12:16.898Z,1021.25
2017-08-25T09:13:18.793Z,1021.23
2017-08-25T09:14:20.686Z,1021.24
2017-08-25T09:15:22.579Z,1021.26
2017-08-25T09:16:36.757Z,1021.20
2017-08-25T09:17:38.650Z,1021.16
2017-08-25T09:18:40.544Z,1021.18
2017-08-25T09:19:42.439Z,1021.21
2017-08-25T09:20:44.270Z,1021.12
2017-08-25T09:21:46.101Z,1021.11
2017-08-25T09:22:47.996Z,1021.13
2017-08-25T09:23:49.891Z,1021.14
2017-08-25T09:24:51.787Z,1021.10
2017-08-25T09:26:05.950Z,1021.16
2017-08-25T09:27:07.847Z,1021.19
2017-08-25T09:28:09.737Z,1021.12
2017-08-25T09:29:11.632Z,1021.16
2017-08-25T09:30:13.461Z,1021.15
2017-08-25T09:31:15.302Z,1021.15
2017-08-25T09:32:17.198Z,1021.18
2017-08-25T09:33:19.092Z,1021.21
2017-08-25T09:34:20.988Z,1021.23
2017-08-25T09:35:35.155Z,1021.21
2017-08-25T09:36:37.048Z,1021.20
2017-08-25T09:37:38.942Z,1021.21
2017-08-25T09:38:40.835Z,1021.18
2017-08-25T09:39:42.674Z,1021.16
2017-08-25T09:40:44.504Z,1021.16
2017-08-25T09:41:46.402Z,1021.24
2017-08-25T09:42:48.295Z,1021.21
2017-08-25T09:43:50.187Z,1021.20
2017-08-25T09:45:04.353Z,1021.17
2017-08-25T09:46:06.242Z,1021.13
2017-08-25T09:47:08.136Z,1021.15
2017-08-25T09:48:10.028Z,1021.11
2017-08-25T09:49:11.871Z,1021.12
2017-08-25T09:50:13.695Z,1021.07
2017-08-25T09:51:15.592Z,1021.08
2017-08-25T09:52:17.479Z,1021.08
2017-08-25T09:53:19.369Z,1021.03
2017-08-25T09:54:33.542Z,1021.03
2017-08-25T09:55:35.430Z,1021.08
2017-08-25T09:56:37.324Z,1021.07
2017-08-25T09:57:39.223Z,1021.12
2017-08-25T09:58:41.039Z,1021.10
2017-08-25T09:59:42.865Z,1021.09
2017-08-25T10:00:44.756Z,1021.13
2017-08-25T10:01:46.658Z,1021.12
2017-08-25T10:02:48.549Z,1021.11
2017-08-25T10:04:02.717Z,1021.13
2017-08-25T10:05:04.604Z,1021.12
2017-08-25T10:06:06.498Z,1021.15
2017-08-25T10:07:08.390Z,1021.14
2017-08-25T10:08:10.220Z,1021.11
2017-08-25T10:09:12.048Z,1021.06
2017-08-25T10:10:13.951Z,1021.08
2017-08-25T10:11:15.843Z,1021.05
2017-08-25T10:12:17.743Z,1021.03
2017-08-25T10:13:31.918Z,1021.05
2017-08-25T10:14:33.806Z,1021.02
2017-08-25T10:15:35.708Z,1021.01
2017-08-25T10:16:37.610Z,1020.94
2017-08-25T10:17:39.439Z,1021.00
2017-08-25T10:18:41.266Z,1020.92
2017-08-25T10:19:43.170Z,1020.98
2017-08-25T10:20:45.060Z,1020.97
2017-08-25T10:21:46.960Z,1021.04
2017-08-25T10:23:01.124Z,1021.03
2017-08-25T10:24:03.011Z,1020.99
2017-08-25T10:25:04.905Z,1020.99
2017-08-25T10:26:06.796Z,1021.03
2017-08-25T10:27:08.622Z,1021.03
2017-08-25T10:28:10.449Z,1021.08
2017-08-25T10:29:12.350Z,1021.13
2017-08-25T10:30:14.266Z,1021.17
2017-08-25T10:31:16.169Z,1021.17
2017-08-25T10:32:30.317Z,1021.20
2017-08-25T10:33:32.165Z,1021.27
2017-08-25T10:34:34.057Z,1021.23
2017-08-25T10:35:35.944Z,1021.23
2017-08-25T10:36:37.821Z,1021.20
2017-08-25T10:37:39.663Z,1021.23
2017-08-25T10:38:41.495Z,1021.21
2017-08-25T10:39:43.387Z,1021.16
2017-08-25T10:40:45.288Z,1021.14
2017-08-25T10:41:59.497Z,1021.17
2017-08-25T10:43:01.387Z,1021.10
2017-08-25T10:44:03.280Z,1021.14
2017-08-25T10:45:05.172Z,1021.10
2017-08-25T10:46:06.996Z,1021.09
2017-08-25T10:47:08.840Z,1021.05
2017-08-25T10:48:10.728Z,1021.06
2017-08-25T10:49:12.620Z,1021.05
2017-08-25T10:50:14.511Z,1021.08
2017-08-25T10:51:28.674Z,1021.07
2017-08-25T10:52:30.563Z,1021.04
2017-08-25T10:53:32.456Z,1021.01
2017-08-25T10:54:34.347Z,1020.97
2017-08-25T10:55:36.174Z,1020.92
2017-08-25T10:56:38.002Z,1021.00
2017-08-25T10:57:39.890Z,1020.98
2017-08-25T10:58:41.783Z,1020.98
2017-08-25T10:59:43.672Z,1020.96
2017-08-25T11:00:58.129Z,1020.95
2017-08-25T11:01:59.981Z,1020.90
2017-08-25T11:03:01.871Z,1020.97
2017-08-25T11:04:03.759Z,1020.94
2017-08-25T11:05:05.599Z,1020.94
2017-08-25T11:06:07.429Z,1020.96
2017-08-25T11:07:09.320Z,1020.92
2017-08-25T11:08:11.212Z,1020.95
2017-08-25T11:09:13.105Z,1020.97
2017-08-25T11:10:27.266Z,1020.94
2017-08-25T11:11:29.157Z,1020.96
2017-08-25T11:12:31.048Z,1020.98
2017-08-25T11:13:32.940Z,1021.09
2017-08-25T11:14:34.778Z,1021.17
2017-08-25T11:15:36.607Z,1021.10
2017-08-25T11:16:38.494Z,1021.04
2017-08-25T11:17:40.394Z,1021.01
2017-08-25T11:18:42.295Z,1020.99
2017-08-25T11:19:56.458Z,1021.04
2017-08-25T11:20:58.374Z,1020.98
2017-08-25T11:22:00.252Z,1021.00
2017-08-25T11:23:02.149Z,1021.00
2017-08-25T11:24:03.977Z,1020.91
2017-08-25T11:25:05.807Z,1020.93
2017-08-25T11:26:07.696Z,1020.92
2017-08-25T11:27:09.587Z,1020.97
2017-08-25T11:28:11.478Z,1021.02
2017-08-25T11:29:25.643Z,1021.01
2017-08-25T11:30:27.561Z,1020.99
2017-08-25T11:31:29.485Z,1020.95
2017-08-25T11:32:31.404Z,1020.92
2017-08-25T11:33:33.265Z,1020.88
2017-08-25T11:34:35.131Z,1020.89
2017-08-25T11:35:37.062Z,1020.90
2017-08-25T11:36:38.973Z,1020.96
2017-08-25T11:37:40.868Z,1021.06
2017-08-25T11:38:55.081Z,1021.07
2017-08-25T11:39:56.973Z,1021.03
2017-08-25T11:40:58.872Z,1021.02
2017-08-25T11:42:00.762Z,1021.00
2017-08-25T11:43:02.593Z,1021.02
2017-08-25T11:44:04.425Z,1021.04
2017-08-25T11:45:06.317Z,1021.04
2017-08-25T11:46:08.220Z,1020.97
2017-08-25T11:47:10.111Z,1020.95
2017-08-25T11:48:24.275Z,1020.92
2017-08-25T11:49:26.165Z,1020.89
2017-08-25T11:50:28.057Z,1020.89
2017-08-25T11:51:29.952Z,1020.87
2017-08-25T11:52:31.776Z,1020.89
2017-08-25T11:53:33.610Z,1020.94
2017-08-25T11:54:35.495Z,1020.94
2017-08-25T11:55:37.386Z,1020.96
2017-08-25T11:56:39.289Z,1020.92
2017-08-25T11:57:53.875Z,1020.92
2017-08-25T11:58:55.773Z,1020.90
2017-08-25T11:59:57.665Z,1020.89
2017-08-25T12:00:59.554Z,1020.95
2017-08-25T12:02:01.391Z,1020.93
2017-08-25T12:03:03.220Z,1020.93
2017-08-25T12:04:05.111Z,1020.95
2017-08-25T12:05:07.001Z,1020.96
2017-08-25T12:06:08.892Z,1021.03
2017-08-25T12:07:23.056Z,1021.01
2017-08-25T12:08:24.944Z,1020.97
2017-08-25T12:09:26.847Z,1020.96
2017-08-25T12:10:28.753Z,1020.94
2017-08-25T12:11:30.582Z,1020.92
2017-08-25T12:12:32.418Z,1020.95
2017-08-25T12:13:34.319Z,1020.96
2017-08-25T12:14:36.213Z,1020.96
2017-08-25T12:15:38.065Z,1020.92
2017-08-25T12:16:52.236Z,1020.92
2017-08-25T12:17:54.127Z,1020.87
2017-08-25T12:18:56.018Z,1020.86
2017-08-25T12:19:57.920Z,1020.92
2017-08-25T12:20:59.748Z,1020.88
2017-08-25T12:22:01.579Z,1020.85
2017-08-25T12:23:03.469Z,1020.88
2017-08-25T12:24:05.360Z,1020.91
2017-08-25T12:25:07.254Z,1020.95
2017-08-25T12:26:21.413Z,1021.02
2017-08-25T12:27:23.302Z,1020.97
2017-08-25T12:28:25.200Z,1021.00
2017-08-25T12:29:27.092Z,1021.02
2017-08-25T12:30:28.922Z,1020.96
2017-08-25T12:31:30.755Z,1020.98
2017-08-25T12:32:32.645Z,1020.96
2017-08-25T12:33:34.545Z,1020.93
2017-08-25T12:34:36.437Z,1020.91
2017-08-25T12:35:50.611Z,1020.90
2017-08-25T12:36:52.502Z,1020.88
2017-08-25T12:37:54.464Z,1020.90
2017-08-25T12:38:56.321Z,1020.91
2017-08-25T12:39:58.164Z,1020.88
2017-08-25T12:40:59.997Z,1020.85
2017-08-25T12:42:01.888Z,1020.88
2017-08-25T12:43:03.783Z,1020.90
2017-08-25T12:44:05.673Z,1020.90